Flight Track Log - Related Links

Times and Time Zones

All times are in EDT time to prevent confusion due to time zone crossing. See the USC105 flight status page for this flight to view local times or setup timezone preferences in your user account.

Time Position Orientation Groundspeed Altitude Reporting Facility
EDT Latitude Longitude Course Direction KTS MPH feet Rate Location/Type
Wed 12:18:55 AM 42.2394 -83.5956 270° West 130 150 2,300  Level Cleveland Center
Wed 12:19:56 AM 42.2361 -83.6431 265° West 127 146 3,500 1,190 Climbing Cleveland Center
Wed 12:20:56 AM 42.2306 -83.6906 261° West 123 142 4,700 867 Climbing Cleveland Center
Wed 12:22:49 AM 42.2297 -83.7764 269° West 127 146 6,000 448 Climbing Chicago Center
Wed 12:23:50 AM 42.2244 -83.8422 264° West 155 178 6,000  Level Chicago Center
Wed 12:24:50 AM 42.2192 -83.9092 264° West 172 198 6,000  Level Chicago Center
Wed 12:25:51 AM 42.2164 -83.9806 267° West 181 208 6,000 -50 Level Chicago Center
Wed 12:26:51 AM 42.2133 -84.0517 267° West 187 215 5,900 -50 Descending Chicago Center
Wed 12:27:52 AM 42.2094 -84.1231 266° West 189 217 5,900  Level Chicago Center
Wed 12:28:52 AM 42.2039 -84.1950 264° West 189 217 5,900 50 Level Chicago Center
Wed 12:29:53 AM 42.1997 -84.2656 265° West 189 217 6,000  Climbing Chicago Center
Wed 12:30:53 AM 42.1972 -84.3364 267° West 189 217 5,900  Descending Chicago Center
Wed 12:31:54 AM 42.1931 -84.4056 265° West 187 215 6,000 50 Climbing Chicago Center
Wed 12:32:54 AM 42.1886 -84.4750 265° West 188 216 6,000  Level Chicago Center
Wed 12:33:54 AM 42.1847 -84.5544 266° West 186 214 6,000 -50 Level Chicago Center
Wed 12:34:55 AM 42.1806 -84.6244 265° West 186 214 5,900  Descending Chicago Center
Wed 12:35:55 AM 42.1772 -84.6939 266° West 187 215 6,000 50 Climbing Chicago Center
Wed 12:36:56 AM 42.1731 -84.7625 265° West 186 214 6,000  Level Chicago Center
Wed 12:37:56 AM 42.1689 -84.8314 265° West 185 213 6,000 -50 Level Chicago Center
Wed 12:38:57 AM 42.1647 -84.9019 265° West 187 215 5,900  Descending Chicago Center
Wed 12:39:57 AM 42.1597 -84.9728 265° West 190 219 6,000  Climbing Chicago Center
Wed 12:40:57 AM 42.1567 -85.0433 267° West 190 219 5,900 -50 Descending Chicago Center
Wed 12:41:58 AM 42.1522 -85.1122 265° West 188 216 5,900  Level Chicago Center
Wed 12:42:58 AM 42.1469 -85.1814 264° West 186 214 5,900 50 Level Chicago Center
Wed 12:43:59 AM 42.1419 -85.2514 265° West 188 216 6,000  Climbing Chicago Center
Wed 12:44:59 AM 42.1381 -85.3200 266° West 187 215 5,900  Descending Chicago Center
Wed 12:46:00 AM 42.1331 -85.3906 265° West 189 217 6,000 50 Climbing Chicago Center
Wed 12:47:00 AM 42.1275 -85.4597 264° West 188 216 6,000  Level Chicago Center
Wed 12:48:00 AM 42.1233 -85.5303 265° West 189 217 6,000  Level Chicago Center
Wed 12:49:01 AM 42.1178 -85.6011 264° West 191 220 6,000  Level Chicago Center
Wed 12:50:01 AM 42.1133 -85.6717 265° West 191 220 6,000  Level Chicago Center
Wed 12:51:02 AM 42.1086 -85.7406 265° West 188 216 6,000  Level Chicago Center
Wed 12:52:02 AM 42.1036 -85.8100 264° West 187 215 6,000  Level Chicago Center
Wed 12:53:02 AM 42.0992 -85.8800 265° West 189 217 6,000  Level Chicago Center
Wed 12:54:03 AM 42.0931 -85.9650 264° West 190 219 6,000  Level Chicago Center
Wed 12:55:03 AM 42.0875 -86.0347 264° West 189 217 6,000  Level Chicago Center
Wed 12:56:03 AM 42.0831 -86.1050 265° West 189 217 6,000  Level Chicago Center
Wed 12:57:04 AM 42.0769 -86.1756 263° West 190 219 6,000  Level Chicago Center
Wed 12:58:04 AM 42.0728 -86.2458 265° West 189 217 6,000  Level Chicago Center
Wed 12:59:04 AM 42.0669 -86.3153 264° West 189 217 6,000  Level Chicago Center
Wed 01:00:07 AM 42.0617 -86.3856 264° West 189 217 6,000  Level Chicago Center
Wed 01:01:07 AM 42.0564 -86.4572 264° West 193 222 6,000  Level Chicago Center
Wed 01:02:08 AM 42.0519 -86.5267 265° West 189 217 6,000  Level Chicago Center
Wed 01:03:08 AM 42.0464 -86.5969 264° West 188 216 6,000  Level Chicago Center
Wed 01:04:08 AM 42.0408 -86.6678 264° West 190 219 6,000  Level Chicago Center
Wed 01:05:09 AM 42.0356 -86.7469 265° West 190 219 6,000  Level Chicago Center
Wed 01:06:09 AM 42.0294 -86.8175 263° West 190 219 6,000  Level Chicago Center
Wed 01:07:09 AM 42.0242 -86.8886 264° West 192 221 6,000  Level Chicago Center
Wed 01:08:10 AM 42.0186 -86.9589 264° West 192 221 6,000  Level Chicago Center
Wed 01:09:10 AM 42.0100 -87.0294 261° West 192 221 6,000  Level Chicago Center
Wed 01:10:10 AM 41.9922 -87.0964 250° West 191 220 6,000  Level Chicago Center
Wed 01:11:10 AM 41.9781 -87.1628 254° West 188 216 6,000  Level Chicago Center
Wed 01:12:11 AM 41.9628 -87.2300 253° West 189 217 6,000  Level Chicago Center
Wed 01:13:11 AM 41.9472 -87.2978 253° West 191 220 6,000  Level Chicago Center
Wed 01:14:11 AM 41.9317 -87.3653 253° West 191 220 6,000  Level Chicago Center
Wed 01:15:11 AM 41.9169 -87.4328 254° West 190 219 6,000  Level Chicago Center
Wed 01:16:12 AM 41.9014 -87.5006 253° West 190 219 6,000  Level Chicago Center
Wed 01:17:12 AM 41.8858 -87.5689 253° West 193 222 6,000  Level Chicago Center
Wed 01:18:12 AM 41.8694 -87.6356 252° West 191 220 6,000  Level Chicago Center
Wed 01:19:12 AM 41.8550 -87.7031 254° West 190 219 6,000 -50 Level Chicago Center
Wed 01:20:13 AM 41.8386 -87.7703 252° West 191 220 5,900  Descending Chicago Center
Wed 01:21:13 AM 41.8233 -87.8369 253° West 190 219 6,000 -250 Climbing Chicago Center
Wed 01:22:13 AM 41.8078 -87.9044 253° West 190 219 5,400 -645 Descending Chicago Center
Wed 01:23:14 AM 41.7903 -87.9783 252° West 203 234 4,700 -645 Descending Chicago Center
Wed 01:24:14 AM 41.7706 -88.0631 253° West 203 234 4,100 -550 Descending Chicago Center
Wed 01:25:14 AM 41.7550 -88.1303 253° West 198 228 3,600 -550 Descending Chicago Center
Wed 01:26:14 AM 41.7392 -88.1975 253° West 194 223 3,000 -298 Descending Chicago Center
Wed 01:27:15 AM 41.7253 -88.2572 253° West 184 212 3,000  Level Chicago Center
Wed 01:28:15 AM 41.7317 -88.3008 281° West 184 212 3,000  Level Chicago Center
Wed 01:29:15 AM 41.7719 -88.2956 North 159 183 3,000 -100 Level Chicago Center
Wed 01:30:15 AM 41.8100 -88.2828 14° North 148 170 2,800 -600 Descending Chicago Center
Wed 01:31:15 AM 41.8447 -88.2697 16° North 139 160 1,800 -843 Descending Chicago Center
Wed 01:32:16 AM 41.8758 -88.2594 14° North 128 147 1,100 -397 Descending Chicago Center
Wed 01:33:16 AM 41.9053 -88.2494 14° North 125 144 1,000 -100 Descending Chicago Center

Login

Don't have an account? Register now (free) for customized features, flight alerts, and more!